Time;durP1;ratioP1;P1;durP2;ratioP2;P2;SDS_P1;SDS_P2;PMS_P1;PMS_P2;Temp;Humidity;BMP_temperature;BMP_pressure;BME280_temperature;BME280_humidity;BME280_pressure;Samples;Min_cycle;Max_cycle;Signal;HPM_P1;HPM_P2
2021/12/02 00:03:45;;;;;;;22.65;17.23;;;8.20;83.30;;;;;;10825271;33;20016;-74
2021/12/02 00:09:48;;;;;;;25.25;18.25;;;8.30;83.40;;;;;;10825203;33;20427;-74
2021/12/02 00:16:00;;;;;;;26.20;16.62;;;8.20;83.40;;;;;;10824974;33;20031;-74
2021/12/02 00:22:03;;;;;;;25.10;17.95;;;8.20;83.30;;;;;;10824950;33;20027;-74
2021/12/02 00:28:06;;;;;;;22.37;16.25;;;8.20;83.50;;;;;;10823133;33;20039;-74
2021/12/02 00:34:09;;;;;;;18.90;14.30;;;8.20;83.70;;;;;;10824447;33;20028;-75
2021/12/02 00:40:11;;;;;;;24.42;17.67;;;8.10;83.60;;;;;;10824282;33;20054;-75
2021/12/02 00:46:17;;;;;;;28.58;19.65;;;8.10;83.80;;;;;;10824414;33;20028;-76
2021/12/02 00:52:20;;;;;;;16.20;13.13;;;8.10;83.70;;;;;;10824024;33;20016;-76
2021/12/02 00:58:23;;;;;;;23.77;17.30;;;8.10;83.60;;;;;;10822683;33;20032;-75
2021/12/02 01:04:26;;;;;;;18.02;15.05;;;8.10;83.60;;;;;;10823882;33;20047;-75
2021/12/02 01:10:28;;;;;;;16.23;11.77;;;8.10;83.80;;;;;;10823636;33;20047;-75
2021/12/02 01:16:31;;;;;;;18.30;13.75;;;8.00;83.90;;;;;;10823640;33;20088;-75
2021/12/02 01:22:37;;;;;;;14.80;10.95;;;8.00;83.80;;;;;;10823695;33;20348;-75
2021/12/02 01:28:40;;;;;;;18.77;15.57;;;8.00;83.90;;;;;;10823476;32;20344;-75
2021/12/02 01:34:46;;;;;;;15.80;11.50;;;8.00;84.00;;;;;;10829394;33;20288;-75
2021/12/02 01:40:49;;;;;;;15.63;10.68;;;8.00;83.90;;;;;;10829308;33;20396;-75
2021/12/02 01:46:54;;;;;;;14.13;11.12;;;7.90;84.10;;;;;;10566588;27;12175600;-75
2021/12/02 01:53:00;;;;;;;15.38;11.07;;;7.90;84.20;;;;;;10943465;32;20085;-75
2021/12/02 01:59:11;;;;;;;15.52;12.10;;;8.00;84.00;;;;;;10943493;32;20061;-75
2021/12/02 02:05:16;;;;;;;14.23;8.88;;;8.00;83.90;;;;;;10942649;32;20031;-75
2021/12/02 02:11:18;;;;;;;14.48;11.25;;;8.00;83.90;;;;;;10866834;32;20344;-75
2021/12/02 02:17:30;;;;;;;17.70;11.43;;;7.80;83.90;;;;;;10828395;33;20388;-75
2021/12/02 02:23:36;;;;;;;17.08;13.50;;;7.90;83.90;;;;;;10828216;33;20055;-76
2021/12/02 02:29:57;;;;;;;11.88;8.75;;;7.70;83.90;;;;;;10827884;33;20388;-75
2021/12/02 02:35:59;;;;;;;12.13;8.85;;;7.70;84.00;;;;;;10828695;33;20306;-75
2021/12/02 02:42:03;;;;;;;13.30;9.60;;;7.70;84.20;;;;;;10827998;32;20393;-76
2021/12/02 02:48:05;;;;;;;11.68;8.82;;;7.70;84.10;;;;;;10828629;33;20401;-76
2021/12/02 02:54:10;;;;;;;14.30;9.77;;;7.70;84.10;;;;;;10828482;33;20050;-76
2021/12/02 03:00:17;;;;;;;15.23;9.60;;;7.80;84.20;;;;;;10836682;33;20396;-75
2021/12/02 03:12:34;;;;;;;14.20;9.60;;;7.70;84.10;;;;;;10849560;33;20039;-77
2021/12/02 03:18:37;;;;;;;10.80;7.03;;;7.80;84.10;;;;;;10858581;33;20086;-77
2021/12/02 03:24:39;;;;;;;10.70;7.15;;;7.80;84.00;;;;;;10849114;33;20046;-76
2021/12/02 03:30:41;;;;;;;11.00;7.30;;;7.70;84.10;;;;;;10845022;33;20070;-77
2021/12/02 03:36:43;;;;;;;14.55;9.50;;;7.70;84.10;;;;;;10844242;33;20048;-76
2021/12/02 03:42:51;;;;;;;10.07;6.28;;;7.80;84.10;;;;;;10854984;33;20042;-76
2021/12/02 03:48:54;;;;;;;11.12;6.87;;;7.90;84.10;;;;;;10858581;33;20047;-76
2021/12/02 03:54:56;;;;;;;9.20;6.87;;;7.80;84.00;;;;;;10855936;32;20055;-77
2021/12/02 04:00:59;;;;;;;9.35;7.53;;;7.70;84.00;;;;;;10836628;33;20036;-77
2021/12/02 04:07:01;;;;;;;9.70;6.35;;;7.80;84.10;;;;;;10879180;32;20032;-77
2021/12/02 04:13:18;;;;;;;9.80;5.85;;;7.90;84.00;;;;;;10832719;33;20055;-77
2021/12/02 04:19:22;;;;;;;9.38;7.10;;;7.80;83.80;;;;;;10841883;33;20044;-77
2021/12/02 04:25:25;;;;;;;9.90;6.75;;;7.60;83.90;;;;;;10843202;33;20289;-77
2021/12/02 04:31:27;;;;;;;12.50;8.05;;;7.30;84.10;;;;;;10894152;32;20050;-77
2021/12/02 04:37:29;;;;;;;12.10;8.25;;;7.20;84.20;;;;;;10897733;32;20050;-77
2021/12/02 04:43:31;;;;;;;8.32;5.53;;;7.30;84.40;;;;;;10849200;33;20020;-77
2021/12/02 04:49:33;;;;;;;9.93;7.40;;;7.50;84.10;;;;;;10829000;33;20321;-77
2021/12/02 04:55:35;;;;;;;12.18;8.60;;;7.60;84.20;;;;;;10836336;33;20344;-77
2021/12/02 05:01:37;;;;;;;9.38;6.45;;;7.60;84.00;;;;;;10846434;33;20040;-77
2021/12/02 05:07:39;;;;;;;11.95;6.12;;;7.50;84.10;;;;;;10848262;32;20032;-77
2021/12/02 05:13:41;;;;;;;10.57;7.70;;;7.40;84.10;;;;;;10844969;33;20029;-78
2021/12/02 05:19:44;;;;;;;9.10;6.00;;;7.30;84.10;;;;;;10838548;33;20054;-77
2021/12/02 05:25:46;;;;;;;11.65;7.78;;;7.20;84.30;;;;;;10836794;33;20019;-77
2021/12/02 05:31:48;;;;;;;7.50;4.72;;;7.20;84.40;;;;;;10840219;33;20388;-77
2021/12/02 05:38:08;;;;;;;8.85;6.70;;;7.30;84.40;;;;;;10830991;33;20023;-77
2021/12/02 05:44:10;;;;;;;8.82;6.20;;;7.50;84.20;;;;;;10832513;33;20414;-77
2021/12/02 05:50:13;;;;;;;8.25;5.65;;;7.50;84.00;;;;;;10883049;32;20028;-77
2021/12/02 05:56:15;;;;;;;10.10;6.68;;;7.50;84.10;;;;;;10830374;33;20020;-77
2021/12/02 06:02:17;;;;;;;8.48;5.47;;;7.50;84.00;;;;;;10830315;33;20353;-77
2021/12/02 06:08:19;;;;;;;6.72;4.55;;;7.50;84.00;;;;;;10882251;32;20028;-77
2021/12/02 06:14:46;;;;;;;7.78;5.03;;;7.30;84.00;;;;;;10844780;33;20058;-77
2021/12/02 06:20:53;;;;;;;8.65;6.35;;;7.20;84.20;;;;;;10900180;32;20058;-77
2021/12/02 06:26:56;;;;;;;9.52;5.60;;;7.30;84.40;;;;;;10838499;33;20042;-77
2021/12/02 06:32:59;;;;;;;17.58;15.25;;;7.30;84.30;;;;;;10839062;33;20050;-77
2021/12/02 06:39:04;;;;;;;11.63;7.47;;;7.20;84.30;;;;;;10839370;33;20443;-77
2021/12/02 06:45:08;;;;;;;12.75;8.98;;;7.10;84.40;;;;;;10837291;33;20051;-77
2021/12/02 06:51:13;;;;;;;10.20;6.03;;;7.00;84.50;;;;;;10832073;33;20051;-77
2021/12/02 06:57:16;;;;;;;14.73;8.23;;;7.20;84.60;;;;;;10830103;33;20028;-77
2021/12/02 07:03:18;;;;;;;10.40;7.47;;;7.20;84.30;;;;;;10811064;33;20348;-77
2021/12/02 07:09:20;;;;;;;12.95;9.00;;;7.20;84.50;;;;;;10795817;33;20095;-77
2021/12/02 07:15:29;;;;;;;10.88;6.97;;;7.30;84.50;;;;;;10789200;33;20066;-75
2021/12/02 07:21:47;;;;;;;16.55;12.07;;;7.40;84.40;;;;;;10791187;33;20044;-76
2021/12/02 07:27:49;;;;;;;10.82;8.10;;;7.70;84.60;;;;;;10826058;32;20020;-75
2021/12/02 07:33:53;;;;;;;15.90;11.88;;;8.10;84.30;;;;;;10824163;32;20321;-76
2021/12/02 07:39:56;;;;;;;16.83;11.10;;;8.60;83.80;;;;;;10828203;33;20036;-76
2021/12/02 07:45:57;;;;;;;12.60;8.18;;;8.80;83.10;;;;;;10829538;33;20012;-76
2021/12/02 07:52:01;;;;;;;11.98;8.57;;;8.70;82.80;;;;;;10828572;33;20027;-76
2021/12/02 07:58:06;;;;;;;13.57;9.48;;;8.20;83.30;;;;;;10880105;32;20024;-75
2021/12/02 08:04:08;;;;;;;11.48;7.30;;;8.10;83.90;;;;;;10826078;33;20352;-75
2021/12/02 08:10:13;;;;;;;17.33;14.35;;;8.00;83.90;;;;;;10794326;33;20020;-75
2021/12/02 08:16:15;;;;;;;14.27;11.40;;;8.10;84.20;;;;;;10793357;33;20028;-75
2021/12/02 08:22:17;;;;;;;14.25;10.25;;;8.30;83.80;;;;;;10795884;33;20063;-76
2021/12/02 08:28:19;;;;;;;12.88;8.70;;;8.60;83.60;;;;;;10794711;33;20353;-75
2021/12/02 08:34:21;;;;;;;13.50;8.88;;;8.70;83.60;;;;;;10793363;33;20337;-75
2021/12/02 08:40:32;;;;;;;13.30;10.18;;;9.00;83.20;;;;;;10791402;33;20051;-74
2021/12/02 08:46:34;;;;;;;13.57;8.50;;;8.70;82.80;;;;;;10796512;33;20051;-74
2021/12/02 08:52:36;;;;;;;15.13;10.95;;;8.70;83.50;;;;;;10798310;33;20024;-74
2021/12/02 08:58:39;;;;;;;11.48;8.05;;;8.50;83.30;;;;;;10853157;32;20212;-75
2021/12/02 09:04:53;;;;;;;15.10;10.95;;;8.40;83.70;;;;;;10810483;33;20024;-76
2021/12/02 09:10:57;;;;;;;17.02;13.27;;;8.20;83.90;;;;;;10811124;33;20039;-76
2021/12/02 09:17:03;;;;;;;19.05;14.13;;;8.40;83.90;;;;;;10859074;32;20392;-76
2021/12/02 09:23:05;;;;;;;15.65;11.77;;;8.40;83.60;;;;;;10823525;33;20024;-76
2021/12/02 09:29:07;;;;;;;15.00;11.20;;;8.50;83.90;;;;;;10883397;32;20043;-76
2021/12/02 09:35:11;;;;;;;17.00;13.25;;;8.90;83.80;;;;;;10832254;33;20028;-76
2021/12/02 09:41:13;;;;;;;18.55;13.23;;;9.40;82.90;;;;;;10834557;27;20040;-76
2021/12/02 09:47:33;;;;;;;16.50;11.93;;;9.20;82.90;;;;;;10794793;32;20086;-75
2021/12/02 09:59:59;;;;;;;25.80;18.48;;;9.10;83.30;;;;;;10788919;33;20025;-69
2021/12/02 10:06:19;;;;;;;17.73;12.80;;;9.20;82.70;;;;;;10791726;33;20074;-70
2021/12/02 10:12:23;;;;;;;13.85;9.60;;;8.80;83.30;;;;;;10791747;33;20028;-70
2021/12/02 10:18:38;;;;;;;15.68;10.43;;;8.80;83.50;;;;;;10791533;33;20034;-70
2021/12/02 10:24:43;;;;;;;16.20;11.45;;;8.70;83.50;;;;;;10778564;33;20399;-70
2021/12/02 10:30:49;;;;;;;16.40;12.45;;;8.50;83.50;;;;;;10791138;33;20369;-69
2021/12/02 10:36:56;;;;;;;20.27;14.93;;;8.60;84.10;;;;;;10790850;33;20054;-69
2021/12/02 10:43:07;;;;;;;18.80;12.65;;;8.70;84.10;;;;;;10790798;33;20024;-69
2021/12/02 10:49:15;;;;;;;21.87;16.37;;;8.70;83.70;;;;;;10790844;33;20435;-69
2021/12/02 10:55:22;;;;;;;18.17;10.73;;;8.50;83.90;;;;;;10790269;33;20021;-69
2021/12/02 11:01:40;;;;;;;16.87;12.65;;;8.70;84.30;;;;;;10789975;32;20075;-69
2021/12/02 11:07:44;;;;;;;18.17;12.93;;;8.80;84.40;;;;;;10789494;32;20031;-70
2021/12/02 11:13:49;;;;;;;11.30;8.45;;;8.90;84.10;;;;;;10776856;33;20024;-69
2021/12/02 11:19:51;;;;;;;14.93;9.68;;;8.90;84.20;;;;;;10789695;32;20020;-69
2021/12/02 11:26:00;;;;;;;13.48;9.70;;;8.90;84.00;;;;;;10787405;32;20389;-69
2021/12/02 11:32:02;;;;;;;12.32;7.80;;;9.20;84.40;;;;;;10789605;33;20355;-70
2021/12/02 11:38:14;;;;;;;11.63;8.88;;;9.20;83.70;;;;;;10789132;33;20024;-69
2021/12/02 11:44:17;;;;;;;10.63;7.53;;;9.20;84.00;;;;;;10771997;32;20039;-69
2021/12/02 11:50:21;;;;;;;12.02;8.18;;;9.30;84.10;;;;;;10788186;33;20463;-70
2021/12/02 11:56:22;;;;;;;9.07;6.15;;;9.40;84.10;;;;;;10787800;33;20025;-70
2021/12/02 12:02:24;;;;;;;9.70;6.35;;;9.60;83.70;;;;;;10784805;33;20468;-70
2021/12/02 12:08:39;;;;;;;9.27;6.68;;;9.70;84.20;;;;;;10786979;32;20041;-69
2021/12/02 12:14:43;;;;;;;10.55;7.20;;;10.00;83.40;;;;;;10785089;32;20470;-70
2021/12/02 12:21:11;;;;;;;10.30;7.28;;;9.90;83.20;;;;;;10787784;33;20008;-70
2021/12/02 12:27:13;;;;;;;14.38;8.48;;;9.80;83.50;;;;;;10787010;33;20024;-69
2021/12/02 12:33:37;;;;;;;12.82;8.27;;;9.90;83.60;;;;;;10788230;33;20043;-75
2021/12/02 12:39:39;;;;;;;10.65;6.28;;;9.90;83.20;;;;;;10775572;33;20059;-76
2021/12/02 12:45:44;;;;;;;13.90;8.52;;;9.60;83.60;;;;;;10788155;33;20016;-75
2021/12/02 12:51:55;;;;;;;10.65;7.75;;;9.50;83.80;;;;;;10787760;33;20020;-75
2021/12/02 12:58:42;;;;;;;12.93;5.60;;;9.50;84.20;;;;;;10787631;33;20055;-75
2021/12/02 13:04:53;;;;;;;12.15;7.10;;;9.70;83.90;;;;;;10774151;32;20310;-75
2021/12/02 13:11:00;;;;;;;12.98;8.80;;;9.60;83.90;;;;;;10789045;33;20358;-74
2021/12/02 13:17:41;;;;;;;9.73;7.18;;;9.90;84.10;;;;;;10788615;33;20028;-76
2021/12/02 13:23:57;;;;;;;14.43;10.68;;;10.10;83.60;;;;;;10788701;33;20377;-75
2021/12/02 13:30:12;;;;;;;11.85;8.90;;;9.90;83.60;;;;;;10794276;33;20047;-75
2021/12/02 13:36:16;;;;;;;14.23;8.88;;;10.10;83.80;;;;;;10795948;33;20028;-75
2021/12/02 13:42:18;;;;;;;13.00;8.60;;;10.50;83.20;;;;;;10794053;33;20071;-75
2021/12/02 13:48:21;;;;;;;12.10;8.57;;;10.80;82.80;;;;;;10792883;33;20071;-75
2021/12/02 13:54:23;;;;;;;12.27;8.65;;;10.90;82.30;;;;;;10792801;33;20028;-75
2021/12/02 14:00:27;;;;;;;11.80;7.82;;;10.90;82.20;;;;;;10792785;33;20047;-75
2021/12/02 14:06:31;;;;;;;9.80;6.75;;;10.90;82.10;;;;;;10791588;33;20058;-75
2021/12/02 14:12:57;;;;;;;12.80;9.60;;;10.90;82.30;;;;;;10790919;33;20039;-76
2021/12/02 14:19:09;;;;;;;9.63;6.75;;;11.10;82.10;;;;;;10792236;33;20419;-75
2021/12/02 14:25:13;;;;;;;12.55;8.48;;;11.10;81.80;;;;;;10782884;32;20191;-75
2021/12/02 14:31:20;;;;;;;8.93;6.53;;;11.10;81.80;;;;;;10756088;33;20016;-75
2021/12/02 14:37:26;;;;;;;9.38;6.53;;;10.90;81.70;;;;;;10751432;33;20020;-75
2021/12/02 14:43:32;;;;;;;7.95;5.65;;;10.60;81.90;;;;;;10754965;32;20060;-75
2021/12/02 14:49:39;;;;;;;15.73;12.63;;;10.20;82.50;;;;;;10754285;33;20028;-75
2021/12/02 14:55:42;;;;;;;11.98;8.52;;;10.20;83.00;;;;;;10750676;33;20043;-75
2021/12/02 15:02:01;;;;;;;10.93;7.95;;;10.40;82.70;;;;;;10751041;32;20028;-75
2021/12/02 15:08:11;;;;;;;14.40;8.50;;;10.60;82.30;;;;;;10755130;33;20317;-75
2021/12/02 15:14:35;;;;;;;11.30;8.25;;;10.60;82.10;;;;;;10750464;32;20020;-75
2021/12/02 15:20:44;;;;;;;15.82;8.80;;;10.70;82.00;;;;;;10752466;33;20028;-75
2021/12/02 15:26:47;;;;;;;12.60;8.57;;;10.80;82.20;;;;;;10753584;33;20385;-75
2021/12/02 15:32:49;;;;;;;13.07;8.23;;;10.80;81.80;;;;;;10753608;33;20028;-75
2021/12/02 15:38:53;;;;;;;12.55;7.90;;;10.70;81.80;;;;;;10740257;33;20329;-75
2021/12/02 15:44:55;;;;;;;11.07;7.90;;;10.40;82.10;;;;;;10753235;33;20021;-75
2021/12/02 15:50:58;;;;;;;18.27;12.77;;;10.20;82.30;;;;;;10752556;33;20425;-75
2021/12/02 15:57:00;;;;;;;14.27;10.20;;;10.10;82.90;;;;;;10752719;33;20020;-75
2021/12/02 16:03:11;;;;;;;11.73;8.25;;;10.20;82.50;;;;;;10748344;33;20070;-75
2021/12/02 16:15:18;;;;;;;11.50;8.48;;;9.70;83.20;;;;;;10788397;33;20050;-75
2021/12/02 16:21:21;;;;;;;23.65;20.95;;;9.70;83.30;;;;;;10788348;33;20028;-75
2021/12/02 16:27:24;;;;;;;15.05;9.13;;;9.50;83.20;;;;;;10785595;32;20017;-75
2021/12/02 16:33:27;;;;;;;12.40;10.25;;;9.40;83.70;;;;;;10787309;33;20032;-75
2021/12/02 16:39:35;;;;;;;18.27;11.10;;;9.30;83.70;;;;;;10774691;33;20024;-75
2021/12/02 16:45:41;;;;;;;13.82;10.35;;;9.20;83.80;;;;;;10787982;33;20020;-75
2021/12/02 16:51:43;;;;;;;16.58;12.93;;;9.20;83.90;;;;;;10774705;33;20397;-75
2021/12/02 16:57:47;;;;;;;18.58;13.32;;;9.20;84.00;;;;;;10787576;33;20028;-75
2021/12/02 17:04:29;;;;;;;20.05;14.90;;;9.30;83.90;;;;;;10793024;33;20066;-75
2021/12/02 17:10:34;;;;;;;19.10;12.77;;;9.20;84.00;;;;;;10793669;33;20040;-75
2021/12/02 17:16:40;;;;;;;15.50;11.50;;;9.10;84.30;;;;;;10793547;33;20066;-74
2021/12/02 17:22:42;;;;;;;15.45;10.85;;;9.20;84.20;;;;;;10793318;33;20024;-74
2021/12/02 17:28:49;;;;;;;19.70;15.07;;;9.20;84.20;;;;;;10793108;33;20032;-74
2021/12/02 17:34:52;;;;;;;24.48;19.25;;;9.20;84.40;;;;;;10792963;33;20016;-74
2021/12/02 17:40:56;;;;;;;18.23;13.88;;;9.70;84.20;;;;;;10792806;33;20028;-74
2021/12/02 17:47:06;;;;;;;16.90;11.68;;;9.70;83.40;;;;;;10817870;27;20439;-74
2021/12/02 17:53:09;;;;;;;19.23;14.07;;;9.70;83.70;;;;;;10829292;33;20046;-74
2021/12/02 17:59:11;;;;;;;32.78;24.35;;;9.60;84.00;;;;;;10829036;33;20024;-74
2021/12/02 18:05:13;;;;;;;22.85;15.95;;;9.90;83.70;;;;;;10879625;32;20356;-74
2021/12/02 18:11:16;;;;;;;18.25;14.27;;;10.10;83.30;;;;;;10816448;33;20043;-74
2021/12/02 18:17:19;;;;;;;26.90;16.73;;;10.10;83.20;;;;;;10791788;33;20024;-74
2021/12/02 18:23:25;;;;;;;18.10;13.02;;;10.30;83.20;;;;;;10790633;33;20020;-74
2021/12/02 18:29:27;;;;;;;17.10;12.05;;;10.40;82.90;;;;;;10791274;33;20059;-74
2021/12/02 18:35:29;;;;;;;33.20;24.12;;;10.30;83.00;;;;;;10791388;33;20048;-74
2021/12/02 18:41:33;;;;;;;16.90;12.43;;;10.20;82.70;;;;;;10790884;33;20024;-74
2021/12/02 18:47:36;;;;;;;28.55;19.00;;;9.60;83.20;;;;;;10791006;33;20021;-74
2021/12/02 18:53:38;;;;;;;16.87;11.52;;;9.40;83.80;;;;;;10790648;33;20055;-74
2021/12/02 18:59:43;;;;;;;15.98;11.02;;;9.50;83.80;;;;;;10790541;33;20015;-74
2021/12/02 19:05:51;;;;;;;21.65;13.85;;;9.50;83.80;;;;;;10790440;33;20384;-74
2021/12/02 19:31:00;;;;;;;18.55;14.13;;;9.90;83.70;;;;;;10864760;32;20035;-75
2021/12/02 19:37:03;;;;;;;24.55;18.85;;;9.60;83.90;;;;;;10860324;32;20066;-74
2021/12/02 19:43:05;;;;;;;19.65;15.27;;;9.50;84.30;;;;;;10864734;32;20023;-70
2021/12/02 19:49:08;;;;;;;20.35;15.27;;;9.60;84.20;;;;;;10863266;32;20023;-70
2021/12/02 19:55:11;;;;;;;21.27;13.98;;;9.70;83.90;;;;;;10859607;32;20023;-70
2021/12/02 20:01:13;;;;;;;22.98;17.10;;;9.70;83.90;;;;;;10806926;32;20054;-69
2021/12/02 20:07:16;;;;;;;25.70;19.17;;;9.60;84.20;;;;;;10806270;32;20028;-70
2021/12/02 20:13:23;;;;;;;26.00;19.15;;;9.70;84.40;;;;;;10825331;33;20085;-70
2021/12/02 20:19:33;;;;;;;27.65;18.90;;;9.70;84.20;;;;;;10825158;33;20032;-70
2021/12/02 20:25:35;;;;;;;16.30;12.45;;;9.40;84.80;;;;;;10825035;33;20028;-70
2021/12/02 20:31:38;;;;;;;14.80;10.98;;;9.40;85.20;;;;;;10825066;33;20020;-70
2021/12/02 20:37:41;;;;;;;10.55;7.82;;;9.30;85.40;;;;;;10824567;33;20028;-70
2021/12/02 20:43:46;;;;;;;9.00;6.25;;;9.20;85.60;;;;;;10824277;33;20020;-70
2021/12/02 20:49:55;;;;;;;9.95;5.78;;;9.20;85.60;;;;;;10824581;33;20403;-70
2021/12/02 20:55:57;;;;;;;7.43;6.30;;;9.00;85.60;;;;;;10824384;33;20016;-70
2021/12/02 21:02:00;;;;;;;5.30;3.75;;;9.00;85.80;;;;;;10824085;33;20474;-72
2021/12/02 21:08:06;;;;;;;6.32;3.20;;;8.80;85.50;;;;;;10824136;33;20024;-71
2021/12/02 21:14:08;;;;;;;5.12;2.67;;;8.70;86.10;;;;;;10823799;33;20060;-70
2021/12/02 21:20:12;;;;;;;2.83;1.33;;;8.60;85.90;;;;;;10820687;33;20054;-70
2021/12/02 21:26:14;;;;;;;4.43;1.73;;;8.50;86.30;;;;;;10823609;33;20012;-70
2021/12/02 21:32:16;;;;;;;2.42;1.52;;;8.50;86.50;;;;;;10823429;33;20016;-71
2021/12/02 21:38:20;;;;;;;2.30;1.27;;;8.50;86.20;;;;;;10823370;33;20064;-70
2021/12/02 21:44:23;;;;;;;1.52;1.02;;;8.50;86.50;;;;;;10819528;33;20020;-70
2021/12/02 21:50:26;;;;;;;1.73;1.00;;;8.60;86.40;;;;;;10827932;32;20024;-70
2021/12/02 21:56:30;;;;;;;2.12;0.95;;;8.60;86.70;;;;;;10829181;33;20020;-70
2021/12/02 22:02:32;;;;;;;1.20;0.77;;;8.70;86.50;;;;;;10828815;33;20028;-70
2021/12/02 22:08:37;;;;;;;1.67;0.88;;;8.80;86.60;;;;;;10828866;33;20032;-70
2021/12/02 22:14:39;;;;;;;1.25;0.93;;;9.00;86.50;;;;;;10828909;33;20387;-70
2021/12/02 22:20:41;;;;;;;2.35;0.98;;;9.10;86.50;;;;;;10828508;33;20024;-70
2021/12/02 22:26:43;;;;;;;2.58;1.25;;;9.20;86.50;;;;;;10828287;33;20381;-70
2021/12/02 22:32:46;;;;;;;1.20;1.00;;;9.20;86.50;;;;;;10828177;33;20043;-70
2021/12/02 22:38:48;;;;;;;3.55;1.75;;;9.20;86.30;;;;;;10827998;33;20016;-70
2021/12/02 22:44:51;;;;;;;1.33;1.15;;;9.20;86.20;;;;;;10827777;33;20114;-70
2021/12/02 22:50:56;;;;;;;2.95;1.75;;;9.20;86.00;;;;;;10827855;33;20021;-70
2021/12/02 22:57:00;;;;;;;7.62;4.30;;;9.20;86.10;;;;;;10877975;32;20043;-70
2021/12/02 23:03:02;;;;;;;5.10;3.20;;;9.20;86.00;;;;;;10826457;33;20019;-70
2021/12/02 23:09:07;;;;;;;4.70;2.90;;;9.20;86.00;;;;;;10826968;33;20317;-70
2021/12/02 23:15:11;;;;;;;5.37;2.08;;;9.10;85.70;;;;;;10826965;33;20474;-70
2021/12/02 23:21:13;;;;;;;3.85;2.70;;;8.80;85.60;;;;;;10826750;33;20028;-70
2021/12/02 23:27:19;;;;;;;3.95;1.87;;;8.70;85.60;;;;;;10822446;33;20053;-70
2021/12/02 23:33:28;;;;;;;3.15;1.75;;;8.60;86.30;;;;;;10877151;32;20047;-70
2021/12/02 23:39:31;;;;;;;2.45;1.10;;;8.70;86.70;;;;;;10826364;33;20020;-70
2021/12/02 23:45:33;;;;;;;3.90;2.08;;;8.70;87.00;;;;;;10826028;33;20414;-70
2021/12/02 23:51:35;;;;;;;2.28;1.33;;;8.80;86.80;;;;;;10825949;33;20042;-70
2021/12/02 23:57:37;;;;;;;1.62;1.17;;;8.90;86.80;;;;;;10825604;33;20028;-69
